Flight Track Log - Related Links

Times and Time Zones

All times are in EDT time to prevent confusion due to time zone crossing. See the ASH3732 flight status page for this flight to view local times or setup timezone preferences in your user account.

Time Position Orientation Groundspeed Altitude Reporting Facility
EDT Latitude Longitude Course Direction KTS MPH feet Rate Location/Type
Sun 09:03:42 AM 25.7847 -80.3156 304° West 186 214 700  Level Miami Center
Sun 09:04:58 AM 25.8250 -80.3814 304° West 202 232 2,700 2,074 Climbing Miami Center
Sun 09:05:58 AM 25.9061 -80.3883 356° North 227 261 5,400 2,700 Climbing Miami Center
Sun 09:06:58 AM 25.9875 -80.3978 354° North 255 293 8,100 2,600 Climbing Miami Center
Sun 09:07:58 AM 26.0708 -80.4047 356° North 284 327 10,600 2,050 Climbing Miami Center
Sun 09:08:58 AM 26.1603 -80.4144 354° North 304 350 12,200 1,550 Climbing Miami Center
Sun 09:09:58 AM 26.2561 -80.4267 353° North 325 374 13,700 1,600 Climbing Miami Center
Sun 09:10:58 AM 26.3478 -80.4339 356° North 359 413 15,400 1,650 Climbing Miami Center
Sun 09:11:58 AM 26.4600 -80.4606 348° North 368 423 17,000 1,550 Climbing Miami Center
Sun 09:12:58 AM 26.5531 -80.5006 339° North 384 442 18,500 1,600 Climbing Miami Center
Sun 09:13:58 AM 26.6625 -80.5458 340° North 384 442 20,200 1,500 Climbing Miami Center
Sun 09:14:58 AM 26.7556 -80.5836 340° North 384 442 21,500 1,300 Climbing Miami Center
Sun 09:15:58 AM 26.8731 -80.6361 338° Northwest 390 449 22,800 1,000 Climbing Miami Center
Sun 09:16:58 AM 26.9828 -80.6794 341° North 401 461 23,500 700 Climbing Miami Center
Sun 09:17:58 AM 27.0942 -80.7250 340° North 414 476 24,200 800 Climbing Miami Center
Sun 09:18:58 AM 27.2119 -80.7733 340° North 432 497 25,100 950 Climbing Miami Center
Sun 09:19:58 AM 27.3303 -80.7961 350° North 437 503 26,100 950 Climbing Miami Center
Sun 09:20:58 AM 27.4569 -80.8261 348° North 437 503 27,000 900 Climbing Miami Center
Sun 09:21:58 AM 27.5792 -80.8539 349° North 442 509 27,900 850 Climbing Miami Center
Sun 09:22:58 AM 27.7017 -80.8814 349° North 448 516 28,700 800 Climbing Miami Center
Sun 09:23:58 AM 27.8303 -80.9119 348° North 454 522 29,500 750 Climbing Miami Center
Sun 09:24:58 AM 27.9567 -80.9422 348° North 454 522 30,200 700 Climbing Miami Center
Sun 09:25:58 AM 28.0831 -80.9725 348° North 459 528 30,900 700 Climbing Miami Center
Sun 09:26:58 AM 28.2117 -81.0008 349° North 464 534 31,600 700 Climbing Miami Center
Sun 09:27:58 AM 28.3444 -81.0317 348° North 476 548 32,300 700 Climbing Miami Center
Sun 09:28:58 AM 28.4708 -81.0600 349° North 476 548 33,000 714 Climbing Miami Center
Sun 09:30:04 AM 28.6153 -81.0975 347° North 475 547 33,800 720 Climbing Jacksonville Center
Sun 09:31:03 AM 28.7450 -81.1283 348° North 475 547 34,500 756 Climbing Jacksonville Center
Sun 09:32:03 AM 28.8728 -81.1594 348° North 469 540 35,300 744 Climbing Jacksonville Center
Sun 09:33:04 AM 29.0025 -81.1903 348° North 469 540 36,000 700 Climbing Jacksonville Center
Sun 09:34:03 AM 29.1303 -81.2192 349° North 469 540 36,700 504 Climbing Jacksonville Center
Sun 09:35:03 AM 29.2581 -81.2503 348° North 464 534 37,000 149 Climbing Jacksonville Center
Sun 09:36:04 AM 29.3900 -81.2814 348° North 478 550 37,000  Level Jacksonville Center
Sun 09:37:04 AM 29.5050 -81.3106 348° North 484 557 37,000  Level Jacksonville Center
Sun 09:38:03 AM 29.6392 -81.3442 348° North 479 551 37,000  Level Jacksonville Center
Sun 09:39:05 AM 29.7731 -81.3731 349° North 479 551 37,000  Level Jacksonville Center
Sun 09:40:04 AM 29.9050 -81.4047 348° North 484 557 37,000  Level Jacksonville Center
Sun 09:41:03 AM 30.0431 -81.4386 348° North 489 563 37,000  Level Jacksonville Center
Sun 09:42:04 AM 30.1772 -81.4725 348° North 489 563 37,000  Level Jacksonville Center
Sun 09:43:03 AM 30.3131 -81.4994 350° North 489 563 37,000  Level Jacksonville Center
Sun 09:44:04 AM 30.4531 -81.5022 359° North 489 563 37,000  Level Jacksonville Center
Sun 09:45:04 AM 30.5908 -81.4906 North 489 563 37,000  Level Jacksonville Center
Sun 09:46:04 AM 30.7306 -81.4786 North 494 568 37,000  Level Jacksonville Center
Sun 09:47:04 AM 30.8683 -81.4694 North 494 568 37,000  Level Jacksonville Center
Sun 09:48:04 AM 31.0081 -81.4600 North 494 568 37,000  Level Jacksonville Center
Sun 09:49:03 AM 31.1458 -81.4483 North 494 568 37,000  Level Jacksonville Center
Sun 09:50:03 AM 31.2853 -81.4317 North 499 574 37,000  Level Jacksonville Center
Sun 09:51:04 AM 31.4289 -81.3878 15° North 491 565 37,000  Level Jacksonville Center
Sun 09:52:04 AM 31.5558 -81.3567 12° North 491 565 37,000  Level Jacksonville Center
Sun 09:53:04 AM 31.7036 -81.3175 13° North 496 571 37,000  Level Jacksonville Center
Sun 09:54:03 AM 31.8431 -81.2808 13° North 501 577 37,000  Level Jacksonville Center
Sun 09:55:03 AM 31.9825 -81.2442 13° North 508 585 37,000  Level Jacksonville Center
Sun 09:56:03 AM 32.1197 -81.2050 14° North 503 579 37,000  Level Jacksonville Center
Sun 09:57:04 AM 32.2442 -81.1289 27° Northeast 508 585 37,000  Level Jacksonville Center
Sun 09:58:03 AM 32.3661 -81.0456 30° Northeast 503 579 37,000  Level Jacksonville Center
Sun 09:59:04 AM 32.4858 -80.9569 32° Northeast 508 585 37,000  Level Jacksonville Center
Sun 10:00:04 AM 32.6056 -80.8706 31° Northeast 502 578 37,000  Level Jacksonville Center
Sun 10:01:03 AM 32.7025 -80.7992 32° Northeast 507 583 37,000  Level Jacksonville Center
Sun 10:02:03 AM 32.8344 -80.7047 31° Northeast 507 583 37,000  Level Jacksonville Center
Sun 10:03:04 AM 32.9561 -80.6150 32° Northeast 507 583 37,000  Level Jacksonville Center
Sun 10:04:04 AM 33.0756 -80.5278 31° Northeast 507 583 37,000  Level Jacksonville Center
Sun 10:05:04 AM 33.1989 -80.4400 31° Northeast 507 583 37,000  Level Jacksonville Center
Sun 10:06:04 AM 33.3203 -80.3497 32° Northeast 507 583 37,000  Level Jacksonville Center
Sun 10:07:04 AM 33.4417 -80.2592 32° Northeast 512 589 37,000  Level Jacksonville Center
Sun 10:08:03 AM 33.5628 -80.1658 33° Northeast 512 589 37,000  Level Jacksonville Center
Sun 10:09:04 AM 33.6839 -80.0747 32° Northeast 512 589 37,000  Level Jacksonville Center
Sun 10:10:04 AM 33.8028 -79.9833 33° Northeast 512 589 37,000  Level Jacksonville Center
Sun 10:11:04 AM 33.9261 -79.8942 31° Northeast 512 589 37,000  Level Jacksonville Center
Sun 10:13:11 AM 34.1742 -79.7033 32° Northeast 500 575 37,000  Level Washington Center
Sun 10:14:12 AM 34.3064 -79.6219 27° Northeast 512 589 37,000  Level Washington Center
Sun 10:15:10 AM 34.4381 -79.5503 24° Northeast 512 589 37,000  Level Washington Center
Sun 10:16:11 AM 34.5675 -79.4836 23° Northeast 507 583 37,000  Level Washington Center
Sun 10:17:12 AM 34.7011 -79.4167 22° Northeast 507 583 37,000  Level Washington Center
Sun 10:18:10 AM 34.8347 -79.3444 24° Northeast 507 583 37,000  Level Washington Center
Sun 10:19:10 AM 34.9686 -79.2722 24° Northeast 507 583 37,000  Level Washington Center
Sun 10:20:12 AM 35.1042 -79.2022 23° Northeast 512 589 37,000  Level Washington Center
Sun 10:21:12 AM 35.2400 -79.1294 24° Northeast 517 595 37,000 -356 Level Washington Center
Sun 10:22:10 AM 35.3736 -79.0589 23° Northeast 523 602 36,300 -1,169 Descending Washington Center
Sun 10:23:10 AM 35.5111 -78.9858 23° Northeast 523 602 34,700 -1,537 Descending Washington Center
Sun 10:24:11 AM 35.6467 -78.9147 23° Northeast 528 608 33,200 -843 Descending Washington Center
Sun 10:25:11 AM 35.7994 -78.8289 24° Northeast 528 608 33,000 -397 Descending Washington Center
Sun 10:26:12 AM 35.9347 -78.7550 24° Northeast 528 608 32,400 -1,311 Descending Washington Center
Sun 10:27:10 AM 36.0725 -78.6758 25° Northeast 528 608 30,400 -1,983 Descending Washington Center
Sun 10:28:10 AM 36.2081 -78.5986 25° Northeast 533 613 28,500 -1,835 Descending Washington Center
Sun 10:29:11 AM 36.3436 -78.5214 25° Northeast 527 606 26,700 -1,240 Descending Washington Center
Sun 10:30:11 AM 36.4747 -78.4461 25° Northeast 522 601 26,000 -500 Descending Washington Center
Sun 10:31:11 AM 36.6036 -78.3733 24° Northeast 516 594 25,700 -1,008 Descending Washington Center
Sun 10:32:10 AM 36.7222 -78.3025 26° Northeast 511 588 24,000 -1,714 Descending Washington Center
Sun 10:33:10 AM 36.8511 -78.2292 24° Northeast 511 588 22,300 -992 Descending Washington Center
Sun 10:34:11 AM 36.9864 -78.1453 26° Northeast 500 575 22,000 -149 Descending Washington Center
Sun 10:35:11 AM 37.0919 -78.0889 23° Northeast 480 552 22,000  Level Washington Center
Sun 10:36:12 AM 37.2122 -78.0172 25° Northeast 475 547 22,000  Level Washington Center
Sun 10:37:10 AM 37.3367 -77.9428 25° Northeast 475 547 22,000  Level Washington Center
Sun 10:38:10 AM 37.4633 -77.8708 24° Northeast 480 552 22,000 -49 Level Washington Center
Sun 10:39:12 AM 37.5900 -77.7933 26° Northeast 491 565 21,900 -1,475 Descending Washington Center
Sun 10:40:12 AM 37.7144 -77.7208 25° Northeast 486 559 19,000 -3,051 Descending Washington Center
Sun 10:41:10 AM 37.8303 -77.6531 25° Northeast 475 547 15,900 -3,076 Descending Washington Center
Sun 10:42:11 AM 37.9419 -77.5878 25° Northeast 449 517 12,900 -2,380 Descending Washington Center
Sun 10:43:11 AM 38.0408 -77.5322 24° Northeast 415 478 11,100 -1,339 Descending Washington Center
Sun 10:44:12 AM 38.1250 -77.4842 24° Northeast 366 421 10,200 -559 Descending Washington Center
Sun 10:45:09 AM 38.2050 -77.4414 23° Northeast 324 373 10,000 -661 Descending Washington Center
Sun 10:46:10 AM 38.2886 -77.4250 North 306 352 8,900 -1,200 Descending Washington Center
Sun 10:47:09 AM 38.3722 -77.4111 North 300 345 7,600 -1,200 Descending Washington Center
Sun 10:48:10 AM 38.4517 -77.3944 North 295 339 6,500 -1,171 Descending Washington Center
Sun 10:49:12 AM 38.5311 -77.3778 North 295 339 5,200 -738 Descending Washington Center
Sun 10:50:12 AM 38.6106 -77.3664 North 295 339 5,000 -610 Descending Washington Center
Sun 10:51:10 AM 38.6981 -77.3633 North 290 334 4,000 -504 Descending Washington Center
Sun 10:52:11 AM 38.7753 -77.3597 North 290 334 4,000  Level Washington Center
Sun 10:53:21 AM 38.8667 -77.3500 North 279 321 4,000  Level Potomac TRACON
Sun 10:54:21 AM 38.9500 -77.3500 360° North 278 320 4,000  Level Potomac TRACON
Sun 10:55:16 AM 39.0167 -77.3500 360° North 279 321 4,000 -730 Level Potomac TRACON
Sun 10:56:16 AM 39.1000 -77.3500 360° North 277 319 2,600 -750 Descending Potomac TRACON
Sun 10:57:16 AM 39.1667 -77.3500 360° North 230 265 2,500 -53 Descending Potomac TRACON
Sun 10:58:10 AM 39.2000 -77.4000 311° West 229 264 2,500 -261 Level Potomac TRACON
Sun 10:59:11 AM 39.1500 -77.4333 207° Southwest 214 246 2,000 -248 Descending Potomac TRACON
Sun 11:00:11 AM 39.1000 -77.4333 180° South 209 241 2,000  Level Potomac TRACON
Sun 11:01:05 AM 39.0500 -77.4333 180° South 208 239 2,000 -368 Level Potomac TRACON
Sun 11:02:05 AM 39.0000 -77.4333 180° South 140 161 1,300 -700 Descending Potomac TRACON
Sun 11:03:05 AM 38.9667 -77.4333 180° South 134 154 600 -700 Descending Potomac TRACON
Sun 11:05:00 AM 38.9474 -77.4599 191° South  Level Estimated
Sun 11:12:00 AM 38.9474 -77.4599 191° South  Level Estimated
Sun 11:13:00 AM 38.9474 -77.4599 191° South  Level Estimated
Sun 11:14:00 AM 38.9474 -77.4599 191° South  Level Estimated
Sun 11:15:00 AM 38.9474 -77.4599 191° South  Level Estimated
Sun 11:16:00 AM 38.9474 -77.4599 191° South  Level Estimated

Login

Don't have an account? Register now (free) for customized features, flight alerts, and more!